61.3F
Current conditions from King Hill
Updated every 5 minutes
 
  Tuesday April 13, 2021

Observations for Westford

Westford

44° 37' 38"N, 73° 02' 29"W, Elevation 850 ft.
Eastern Time

Hourly observations for the last 72 hours

Date Time Temperature (°F) Humi-
dity

(%)
Wind
(mph)
Pressure Rain (in)
Air Dew 6 Hour 1 Hr 3 Hr 6 Hr Day
Alt
(in)
Sea
Level

(mb)
Max Min
13 12:00 61.1 43.4 52 NW 1 G 9 30.02 1016.6 0.00
13 11:00 58.7 42.1 54 NNW 4 G 11 30.03 1016.9 0.00
13 10:00 56.0 41.4 58 NE 3 G 5 30.03 1017.0 0.00
13 09:00 50.2 40.4 69 N 3 G 6 30.03 1017.1 0.00
13 08:00 45.4 38.3 45.4 37.5 76 NNE 0 G 5 30.03 1017.0 0.00
13 07:00 37.7 34.8 89 Calm 30.02 1016.7 0.00
13 06:00 38.2 34.7 87 Calm 30.00 1016.0 0.00
13 05:00 39.1 34.4 83 Calm 29.98 1015.4 0.00
13 04:00 40.3 35.6 83 Calm 29.97 1014.9 0.00
13 03:00 41.1 35.4 80 Calm 29.96 1014.5 0.00
13 02:00 41.3 35.6 57.3 41.3 80 Calm 29.95 1014.3 0.00
13 01:00 43.8 36.1 74 Calm 29.94 1014.0 0.00
13 00:00 44.9 37.1 74 Calm 29.93 1013.5 0.00
12 23:00 47.7 38.0 69 Calm 29.91 1013.0 0.00
12 22:00 53.2 39.7 60 NE 0 G 2 29.90 1012.5 0.00
12 21:00 55.9 41.8 59 SSE 0 G 5 29.88 1011.8 0.00
12 20:00 57.2 41.7 63.2 57.2 56 SSW 1 G 4 29.85 1010.9 0.00
12 19:00 58.7 43.1 56 NE 0 G 4 29.82 1009.9 0.00
12 18:00 59.5 43.3 55 NNW 3 G 6 29.80 1009.2 0.00
12 17:00 61.6 43.8 52 NNE 3 G 10 29.77 1008.3 0.00
12 16:00 62.2 43.9 51 N 4 G 11 29.76 1007.8 0.00
12 15:00 62.1 44.8 53 ENE 1 G 12 29.75 1007.6 0.00
12 14:00 62.6 44.7 64.6 48.4 52 NNE 6 G 12 29.75 1007.6 0.00
12 13:00 63.7 44.7 50 NNE 5 G 17 29.75 1007.6 0.00
12 12:00 62.7 44.8 52 ENE 3 G 11 29.76 1007.8 0.00
12 11:00 59.5 43.8 56 N 6 G 14 29.77 1008.3 0.00
12 10:00 56.0 43.2 62 NNE 2 G 13 29.78 1008.4 0.00
12 09:00 54.4 40.8 60 NE 2 G 6 29.78 1008.4 0.00
12 08:00 48.4 38.7 49.9 39.5 69 E 1 G 9 29.76 1007.9 0.00
12 07:00 43.1 37.7 81 NNE 0 G 4 29.76 1007.7 0.00
12 06:00 39.9 36.3 87 Calm 29.74 1007.1 0.00
12 05:00 41.6 37.7 86 Calm 29.73 1006.8 0.00
12 04:00 43.8 38.0 80 Calm 29.72 1006.5 0.00
12 03:00 47.9 39.3 72 Calm 29.71 1006.1 0.00
12 02:00 49.9 40.1 59.9 49.9 69 SSE 2 G 6 29.70 1006.0 0.00
12 01:00 50.9 41.1 69 SSE 2 G 8 29.70 1005.7 0.00
12 00:00 51.9 41.7 68 SSE 4 G 9 29.68 1005.1 0.00
11 23:00 53.5 42.4 66 S 2 G 14 29.67 1004.7 0.00
11 22:00 56.5 43.6 62 SSE 6 G 12 29.64 1003.7 0.00
11 21:00 58.7 44.4 59 SSE 4 G 13 29.62 1003.2 0.00
11 20:00 59.9 45.5 75.8 59.8 59 Calm 29.59 1002.1 0.00
11 19:00 64.6 45.6 50 E 2 G 11 29.57 1001.5 0.00
11 18:00 67.4 50.7 55 ESE 0 G 3 29.56 1001.0 0.00
11 17:00 70.8 49.6 47 ENE 0 G 6 29.54 1000.5 0.00
11 16:00 71.6 49.7 46 N 3 G 9 29.54 1000.4 0.00
11 15:00 74.9 52.2 45 NNW 2 G 11 29.54 1000.5 0.00
11 14:00 69.5 51.1 71.0 51.5 52 W 4 G 10 29.57 1001.2 0.00
11 13:00 69.0 51.7 54 WSW 6 G 14 29.59 1002.2 0.00
11 12:00 65.0 50.8 60 WNW 1 G 9 29.61 1002.9 0.00
11 11:00 64.7 50.5 60 W 3 G 7 29.63 1003.5 0.00
11 10:00 62.7 50.4 64 NE 2 G 5 29.64 1003.8 0.00
11 09:00 58.6 49.2 71 NNE 2 G 4 29.65 1004.1 0.00
11 08:00 51.5 47.1 51.6 46.1 85 NNE 2 G 8 29.65 1004.1 0.00
11 07:00 46.1 44.2 93 Calm 29.66 1004.5 0.00
11 06:00 47.8 45.3 91 Calm 29.64 1003.9 0.00
11 05:00 49.4 45.7 87 Calm 29.63 1003.5 0.00
11 04:00 50.4 46.7 87 Calm 29.64 1003.7 0.00
11 03:00 51.1 46.8 85 Calm 29.64 1003.6 0.00
11 02:00 50.4 46.7 62.8 50.4 87 Calm 29.65 1004.2 0.00
11 01:00 50.9 46.6 85 Calm 29.67 1004.6 0.00
11 00:00 54.0 48.3 81 Calm 29.67 1004.6 0.01
10 23:00 54.5 47.4 77 Calm 29.67 1004.6 0.01
10 22:00 54.9 48.2 78 Calm 29.68 1005.0 0.01
10 21:00 59.3 49.5 70 Calm 29.70 1005.7 0.01
10 20:00 62.8 50.0 75.8 62.8 63 WSW 0 G 1 29.71 1006.1 0.01
10 19:00 68.5 50.7 53 WSW 2 G 5 29.71 1006.2 0.01
10 18:00 74.2 47.7 39 W 3 G 6 29.71 1006.2 0.01
10 17:00 74.7 48.1 39 SSW 0 G 4 29.72 1006.6 0.01
10 16:00 73.9 51.8 46 SW 5 G 8 29.75 1007.4 0.01
10 15:00 73.5 53.7 50 SW 3 G 8 29.78 1008.4 0.01
10 14:00 72.7 52.5 72.7 53.1 49 S 4 G 7 29.80 1009.2 0.01
10 13:00 70.8 52.8 53 SSE 3 G 9 29.83 1010.1 0.01

Data generated by WxSolution Version 1.9.1.7, Build 2018.11.24.


 
 
Current Radar Loop:

Copyright © WestfordWeather.net 2007-2021. All rights reserved.